createdAt,value
2022-11-02T00:01:34.032Z,99785.00
2022-11-02T00:04:01.099Z,99778.00
2022-11-02T00:06:34.930Z,99783.00
2022-11-02T00:09:01.937Z,99789.00
2022-11-02T00:11:34.866Z,99782.00
2022-11-02T00:14:01.741Z,99786.00
2022-11-02T00:16:35.101Z,99785.00
2022-11-02T00:19:05.177Z,99791.00
2022-11-02T00:21:38.876Z,99771.00
2022-11-02T00:24:06.094Z,99780.00
2022-11-02T00:26:39.902Z,99789.00
2022-11-02T00:29:06.900Z,99784.00
2022-11-02T00:31:40.003Z,99780.00
2022-11-02T00:34:06.886Z,99771.00
2022-11-02T00:36:42.536Z,99782.00
2022-11-02T00:39:15.871Z,99775.00
2022-11-02T00:41:49.903Z,99769.00
2022-11-02T00:44:16.800Z,99754.00
2022-11-02T00:46:49.901Z,99774.00
2022-11-02T00:49:16.734Z,99763.00
2022-11-02T00:51:43.568Z,99760.00
2022-11-02T00:54:16.930Z,99769.00
2022-11-02T00:56:44.287Z,99761.00
2022-11-02T00:59:17.923Z,99767.00
2022-11-02T01:01:44.858Z,99769.00
2022-11-02T01:04:18.961Z,99771.00
2022-11-02T01:06:46.303Z,99775.00
2022-11-02T01:09:20.921Z,99778.00
2022-11-02T01:11:48.248Z,99765.00
2022-11-02T01:14:22.292Z,99775.00
2022-11-02T01:16:49.202Z,99769.00
2022-11-02T01:19:22.933Z,99770.00
2022-11-02T01:21:55.933Z,99756.00
2022-11-02T01:24:23.057Z,99754.00
2022-11-02T01:27:00.060Z,99763.00
2022-11-02T01:29:26.971Z,99765.00
2022-11-02T01:31:59.979Z,99762.00
2022-11-02T01:34:28.147Z,99777.00
2022-11-02T01:37:01.963Z,99766.00
2022-11-02T01:39:28.827Z,99772.00
2022-11-02T01:41:55.725Z,99759.00
2022-11-02T01:44:39.913Z,99764.00
2022-11-02T01:47:11.620Z,99743.00
2022-11-02T01:49:45.915Z,99728.00
2022-11-02T01:52:21.497Z,99753.00
2022-11-02T01:55:01.930Z,99742.00
2022-11-02T01:57:28.904Z,99749.00
2022-11-02T02:00:22.915Z,99755.00
2022-11-02T02:02:56.847Z,99750.00
2022-11-02T02:05:30.943Z,99757.00
2022-11-02T02:07:57.790Z,99740.00
2022-11-02T02:10:30.923Z,99746.00
2022-11-02T02:12:57.770Z,99731.00
2022-11-02T02:15:33.944Z,99750.00
2022-11-02T02:18:25.541Z,99742.00
2022-11-02T02:21:07.948Z,99744.00
2022-11-02T02:24:16.937Z,99740.00
2022-11-02T02:27:06.935Z,99736.00
2022-11-02T02:29:44.390Z,99728.00
2022-11-02T02:32:33.960Z,99721.00
2022-11-02T02:35:19.236Z,99720.00
2022-11-02T02:38:07.122Z,99716.00
2022-11-02T02:40:45.819Z,99716.00
2022-11-02T02:43:35.973Z,99703.00
2022-11-02T02:46:07.801Z,99707.00
2022-11-02T02:48:40.945Z,99691.00
2022-11-02T02:51:18.950Z,99700.00
2022-11-02T02:53:55.961Z,99692.00
2022-11-02T02:56:23.618Z,99700.00
2022-11-02T02:59:08.968Z,99689.00
2022-11-02T03:01:36.017Z,99690.00
2022-11-02T03:04:19.978Z,99689.00
2022-11-02T03:06:59.976Z,99686.00
2022-11-02T03:09:41.983Z,99691.00
2022-11-02T03:12:29.976Z,99695.00
2022-11-02T03:15:14.943Z,99707.00
2022-11-02T03:18:01.105Z,99699.00
2022-11-02T03:21:04.940Z,99691.00
2022-11-02T03:23:41.722Z,99675.00
2022-11-02T03:26:20.003Z,99700.00
2022-11-02T03:29:03.893Z,99696.00
2022-11-02T03:31:49.981Z,99706.00
2022-11-02T03:34:28.149Z,99702.00
2022-11-02T03:37:20.041Z,99695.00
2022-11-02T03:39:55.179Z,99690.00
2022-11-02T03:42:31.113Z,99692.00
2022-11-02T03:45:02.741Z,99705.00
2022-11-02T03:47:37.022Z,99701.00
2022-11-02T03:50:13.028Z,99708.00
2022-11-02T03:52:41.862Z,99705.00
2022-11-02T03:55:33.047Z,99710.00
2022-11-02T03:57:59.974Z,99725.00
2022-11-02T04:00:34.010Z,99718.00
2022-11-02T04:03:01.542Z,99725.00
2022-11-02T04:05:40.022Z,99721.00
2022-11-02T04:08:07.280Z,99728.00
2022-11-02T04:10:41.034Z,99725.00
2022-11-02T04:13:08.842Z,99732.00
2022-11-02T04:15:42.105Z,99724.00
2022-11-02T04:18:09.049Z,99734.00
2022-11-02T04:20:42.050Z,99738.00
2022-11-02T04:23:08.946Z,99722.00
2022-11-02T04:25:35.870Z,99741.00
2022-11-02T04:28:15.093Z,99719.00
2022-11-02T04:30:42.020Z,99732.00
2022-11-02T04:33:09.011Z,99748.00
2022-11-02T04:35:42.062Z,99738.00
2022-11-02T04:38:15.029Z,99757.00
2022-11-02T04:40:41.944Z,99755.00
2022-11-02T04:43:08.849Z,99763.00
2022-11-02T04:45:42.008Z,99768.00
2022-11-02T04:48:16.055Z,99767.00
2022-11-02T04:50:49.018Z,99772.00
2022-11-02T04:53:15.845Z,99764.00
2022-11-02T04:55:49.018Z,99745.00
2022-11-02T04:58:15.856Z,99751.00
2022-11-02T05:00:49.055Z,99756.00
2022-11-02T05:03:15.898Z,99750.00
2022-11-02T05:05:49.049Z,99764.00
2022-11-02T05:08:15.873Z,99769.00
2022-11-02T05:10:42.773Z,99776.00
2022-11-02T05:13:17.098Z,99763.00
2022-11-02T05:15:50.049Z,99766.00
2022-11-02T05:18:19.091Z,99777.00
2022-11-02T05:21:02.058Z,99776.00
2022-11-02T05:23:36.038Z,99784.00
2022-11-02T05:26:10.178Z,99788.00
2022-11-02T05:28:43.061Z,99778.00
2022-11-02T05:31:09.923Z,99786.00
2022-11-02T05:33:43.045Z,99780.00
2022-11-02T05:36:09.928Z,99792.00
2022-11-02T05:38:43.080Z,99787.00
2022-11-02T05:41:09.957Z,99784.00
2022-11-02T05:43:43.092Z,99788.00
2022-11-02T05:46:10.019Z,99753.00
2022-11-02T05:48:43.093Z,99774.00
2022-11-02T05:51:10.030Z,99775.00
2022-11-02T05:53:43.117Z,99788.00
2022-11-02T05:56:10.490Z,99771.00
2022-11-02T05:58:37.478Z,99780.00
2022-11-02T06:01:13.142Z,99777.00
2022-11-02T06:03:40.140Z,99779.00
2022-11-02T06:06:16.077Z,99795.00
2022-11-02T06:08:49.119Z,99791.00
2022-11-02T06:11:16.721Z,99797.00
2022-11-02T06:13:50.082Z,99792.00
2022-11-02T06:16:22.690Z,99798.00
2022-11-02T06:18:56.137Z,99791.00
2022-11-02T06:21:26.435Z,99779.00
2022-11-02T06:23:53.641Z,99801.00
2022-11-02T06:26:27.091Z,99798.00
2022-11-02T06:29:00.091Z,99797.00
2022-11-02T06:31:26.921Z,99801.00
2022-11-02T06:33:53.814Z,99797.00
2022-11-02T06:36:27.099Z,99812.00
2022-11-02T06:39:00.102Z,99813.00
2022-11-02T06:41:27.053Z,99803.00
2022-11-02T06:44:00.105Z,99790.00
2022-11-02T06:46:27.047Z,99822.00
2022-11-02T06:49:00.085Z,99821.00
2022-11-02T06:51:26.954Z,99821.00
2022-11-02T06:54:04.559Z,99823.00
2022-11-02T06:56:35.109Z,99821.00
2022-11-02T06:59:08.127Z,99825.00
2022-11-02T07:01:35.152Z,99819.00
2022-11-02T07:04:02.749Z,99827.00
2022-11-02T07:06:38.110Z,99811.00
2022-11-02T07:09:04.976Z,99819.00
2022-11-02T07:11:38.121Z,99826.00
2022-11-02T07:14:04.997Z,99820.00
2022-11-02T07:16:31.909Z,99818.00
2022-11-02T07:19:05.107Z,99827.00
2022-11-02T07:21:31.995Z,99831.00
2022-11-02T07:24:05.144Z,99808.00
2022-11-02T07:26:38.130Z,99821.00
2022-11-02T07:29:05.041Z,99827.00
2022-11-02T07:31:31.915Z,99831.00
2022-11-02T07:34:05.104Z,99832.00
2022-11-02T07:36:31.928Z,99825.00
2022-11-02T07:39:05.125Z,99821.00
2022-11-02T07:41:32.002Z,99828.00
2022-11-02T07:44:05.168Z,99836.00
2022-11-02T07:46:38.141Z,99819.00
2022-11-02T07:49:05.022Z,99824.00
2022-11-02T07:51:38.135Z,99825.00
2022-11-02T07:54:12.153Z,99828.00
2022-11-02T07:56:39.048Z,99820.00
2022-11-02T07:59:05.875Z,99812.00
2022-11-02T08:01:39.166Z,99825.00
2022-11-02T08:04:12.963Z,99823.00
2022-11-02T08:06:46.144Z,99811.00
2022-11-02T08:09:12.943Z,99826.00
2022-11-02T08:11:46.117Z,99819.00
2022-11-02T08:14:12.995Z,99834.00
2022-11-02T08:16:46.188Z,99818.00
2022-11-02T08:19:13.080Z,99823.00
2022-11-02T08:21:46.162Z,99848.00
2022-11-02T08:24:13.034Z,99832.00
2022-11-02T08:26:47.571Z,99811.00
2022-11-02T08:29:16.558Z,99839.00
2022-11-02T08:31:50.163Z,99853.00
2022-11-02T08:34:16.997Z,99849.00
2022-11-02T08:36:50.143Z,99839.00
2022-11-02T08:39:19.122Z,99832.00
2022-11-02T08:41:53.194Z,99849.00
2022-11-02T08:44:20.060Z,99844.00
2022-11-02T08:49:20.936Z,99836.00
2022-11-02T08:51:47.944Z,99840.00
2022-11-02T08:54:21.225Z,99847.00
2022-11-02T08:56:48.112Z,99838.00
2022-11-02T08:59:21.147Z,99835.00
2022-11-02T09:01:48.211Z,99832.00
2022-11-02T09:04:21.157Z,99833.00
2022-11-02T09:06:48.017Z,99836.00
2022-11-02T09:09:21.199Z,99808.00
2022-11-02T09:11:50.488Z,99821.00
2022-11-02T09:14:24.233Z,99810.00
2022-11-02T09:16:51.088Z,99827.00
2022-11-02T09:19:17.935Z,99817.00
2022-11-02T09:21:51.157Z,99827.00
2022-11-02T09:24:18.024Z,99813.00
2022-11-02T09:26:51.181Z,99826.00
2022-11-02T09:29:18.067Z,99821.00
2022-11-02T09:31:51.163Z,99818.00
2022-11-02T09:34:17.994Z,99819.00
2022-11-02T09:36:44.828Z,99810.00
2022-11-02T09:39:18.192Z,99820.00
2022-11-02T09:42:05.198Z,99821.00
2022-11-02T09:44:47.206Z,99818.00
2022-11-02T09:50:08.184Z,99804.00
2022-11-02T09:52:37.643Z,99802.00
2022-11-02T09:55:19.328Z,99821.00
2022-11-02T09:57:47.375Z,99821.00
2022-11-02T10:00:22.266Z,99795.00
2022-11-02T10:03:26.281Z,99818.00
2022-11-02T10:06:03.248Z,99798.00
2022-11-02T10:08:42.220Z,99809.00
2022-11-02T10:11:33.709Z,99806.00
2022-11-02T10:14:53.231Z,99806.00
2022-11-02T10:17:28.553Z,99791.00
2022-11-02T10:20:08.291Z,99801.00
2022-11-02T10:22:39.138Z,99813.00
2022-11-02T10:25:07.096Z,99798.00
2022-11-02T10:27:45.237Z,99792.00
2022-11-02T10:30:28.227Z,99785.00
2022-11-02T10:32:55.138Z,99788.00
2022-11-02T10:39:06.248Z,99778.00
2022-11-02T10:42:04.287Z,99788.00
2022-11-02T10:45:20.298Z,99797.00
2022-11-02T10:48:39.467Z,99792.00
2022-11-02T10:51:20.222Z,99788.00
2022-11-02T10:53:49.903Z,99788.00
2022-11-02T10:56:18.245Z,99790.00
2022-11-02T10:59:06.267Z,99790.00
2022-11-02T11:01:39.300Z,99785.00
2022-11-02T11:04:11.191Z,99778.00
2022-11-02T11:06:49.255Z,99782.00
2022-11-02T11:09:25.799Z,99772.00
2022-11-02T11:12:10.269Z,99771.00
2022-11-02T11:20:46.265Z,99757.00
2022-11-02T11:23:25.675Z,99752.00
2022-11-02T11:26:13.262Z,99745.00
2022-11-02T11:28:54.628Z,99751.00
2022-11-02T11:31:28.267Z,99747.00
2022-11-02T11:33:58.568Z,99744.00
2022-11-02T11:36:40.241Z,99741.00
2022-11-02T11:39:44.443Z,99743.00
2022-11-02T11:42:38.244Z,99742.00
2022-11-02T11:45:08.352Z,99726.00
2022-11-02T11:47:44.265Z,99723.00
2022-11-02T11:50:29.514Z,99725.00
2022-11-02T11:53:30.279Z,99719.00
2022-11-02T11:56:00.427Z,99722.00
2022-11-02T11:58:35.324Z,99729.00
2022-11-02T12:01:16.349Z,99729.00
2022-11-02T12:04:04.296Z,99723.00
2022-11-02T12:06:55.019Z,99721.00
2022-11-02T12:10:12.293Z,99713.00
2022-11-02T12:13:34.290Z,99716.00
2022-11-02T12:16:55.261Z,99711.00
2022-11-02T12:20:25.280Z,99709.00
2022-11-02T12:23:19.348Z,99692.00
2022-11-02T12:26:11.295Z,99686.00
2022-11-02T12:28:44.333Z,99662.00
2022-11-02T12:31:26.290Z,99685.00
2022-11-02T12:34:46.564Z,99677.00
2022-11-02T12:37:41.872Z,99668.00
2022-11-02T12:40:39.038Z,99665.00
2022-11-02T12:43:37.359Z,99661.00
2022-11-02T12:46:37.939Z,99660.00
2022-11-02T12:49:50.326Z,99665.00
2022-11-02T12:52:41.692Z,99649.00
2022-11-02T12:55:24.315Z,99650.00
2022-11-02T12:57:51.597Z,99639.00
2022-11-02T13:00:27.323Z,99643.00
2022-11-02T13:03:23.314Z,99629.00
2022-11-02T13:05:59.318Z,99648.00
2022-11-02T13:08:40.098Z,99659.00
2022-11-02T13:11:19.326Z,99642.00
2022-11-02T13:13:57.170Z,99637.00
2022-11-02T13:16:48.325Z,99624.00
2022-11-02T13:19:38.904Z,99625.00
2022-11-02T13:22:12.353Z,99620.00
2022-11-02T13:24:45.383Z,99622.00
2022-11-02T13:27:41.323Z,99619.00
2022-11-02T13:30:16.308Z,99618.00
2022-11-02T13:33:11.325Z,99620.00
2022-11-02T13:35:38.959Z,99608.00
2022-11-02T13:38:25.443Z,99617.00
2022-11-02T13:41:09.465Z,99621.00
2022-11-02T13:44:14.362Z,99607.00
2022-11-02T13:47:05.688Z,99613.00
2022-11-02T13:49:56.400Z,99609.00
2022-11-02T13:52:31.605Z,99610.00
2022-11-02T13:55:08.354Z,99604.00
2022-11-02T13:57:41.953Z,99596.00
2022-11-02T14:00:38.357Z,99602.00
2022-11-02T14:03:26.516Z,99603.00
2022-11-02T14:06:08.363Z,99604.00
2022-11-02T14:08:39.120Z,99609.00
2022-11-02T14:11:17.409Z,99603.00
2022-11-02T14:13:56.487Z,99605.00
2022-11-02T14:16:49.432Z,99600.00
2022-11-02T14:19:19.319Z,99605.00
2022-11-02T14:21:56.370Z,99605.00
2022-11-02T14:24:41.362Z,99602.00
2022-11-02T14:27:14.217Z,99600.00
2022-11-02T14:29:53.385Z,99598.00
2022-11-02T14:32:20.188Z,99607.00
2022-11-02T14:35:40.364Z,99602.00
2022-11-02T14:38:28.263Z,99600.00
2022-11-02T14:41:43.392Z,99603.00
2022-11-02T14:44:31.376Z,99611.00
2022-11-02T14:47:19.390Z,99598.00
2022-11-02T14:49:55.337Z,99591.00
2022-11-02T14:52:36.414Z,99601.00
2022-11-02T14:55:28.250Z,99598.00
2022-11-02T14:58:25.974Z,99592.00
2022-11-02T15:00:52.864Z,99598.00
2022-11-02T15:03:32.433Z,99590.00
2022-11-02T15:06:11.238Z,99590.00
2022-11-02T15:09:03.461Z,99579.00
2022-11-02T15:11:58.562Z,99585.00
2022-11-02T15:14:44.420Z,99590.00
2022-11-02T15:17:17.431Z,99595.00
2022-11-02T15:19:58.421Z,99596.00
2022-11-02T15:22:43.287Z,99602.00
2022-11-02T15:25:27.455Z,99603.00
2022-11-02T15:27:57.752Z,99599.00
2022-11-02T15:30:31.416Z,99581.00
2022-11-02T15:33:10.433Z,99600.00
2022-11-02T15:35:37.769Z,99589.00
2022-11-02T15:38:18.156Z,99591.00
2022-11-02T15:41:02.888Z,99597.00
2022-11-02T15:44:04.445Z,99596.00
2022-11-02T15:47:54.438Z,99599.00
2022-11-02T15:51:06.441Z,99591.00
2022-11-02T15:53:42.451Z,99592.00
2022-11-02T15:56:34.456Z,99598.00
2022-11-02T15:59:19.443Z,99605.00
2022-11-02T16:01:52.583Z,99592.00
2022-11-02T16:04:20.247Z,99598.00
2022-11-02T16:06:53.416Z,99591.00
2022-11-02T16:09:36.012Z,99601.00
2022-11-02T16:12:26.446Z,99601.00
2022-11-02T16:14:58.827Z,99607.00
2022-11-02T16:17:36.456Z,99603.00
2022-11-02T16:20:16.593Z,99600.00
2022-11-02T16:23:01.520Z,99603.00
2022-11-02T16:25:36.906Z,99615.00
2022-11-02T16:28:27.451Z,99619.00
2022-11-02T16:31:19.348Z,99616.00
2022-11-02T16:33:55.473Z,99617.00
2022-11-02T16:36:35.059Z,99618.00
2022-11-02T16:39:29.674Z,99619.00
2022-11-02T16:42:06.850Z,99620.00
2022-11-02T16:44:40.511Z,99624.00
2022-11-02T16:47:07.366Z,99635.00
2022-11-02T16:49:59.492Z,99632.00
2022-11-02T16:52:33.873Z,99625.00
2022-11-02T16:55:07.474Z,99632.00
2022-11-02T16:57:45.004Z,99636.00
2022-11-02T17:00:26.564Z,99630.00
2022-11-02T17:02:53.849Z,99647.00
2022-11-02T17:05:41.464Z,99633.00
2022-11-02T17:08:47.478Z,99626.00
2022-11-02T17:11:22.567Z,99644.00
2022-11-02T17:14:02.469Z,99609.00
2022-11-02T17:16:33.018Z,99627.00
2022-11-02T17:19:15.599Z,99627.00
2022-11-02T17:21:43.882Z,99638.00
2022-11-02T17:24:38.488Z,99631.00
2022-11-02T17:27:26.312Z,99646.00
2022-11-02T17:30:00.487Z,99640.00
2022-11-02T17:32:27.373Z,99641.00
2022-11-02T17:35:02.503Z,99647.00
2022-11-02T17:37:31.202Z,99623.00
2022-11-02T17:40:07.550Z,99647.00
2022-11-02T17:42:35.445Z,99645.00
2022-11-02T17:45:27.539Z,99656.00
2022-11-02T17:47:58.270Z,99658.00
2022-11-02T17:50:32.531Z,99647.00
2022-11-02T17:53:06.535Z,99660.00
2022-11-02T17:55:41.534Z,99652.00
2022-11-02T17:58:15.523Z,99658.00
2022-11-02T18:00:42.476Z,99652.00
2022-11-02T18:03:29.786Z,99648.00
2022-11-02T18:06:04.512Z,99655.00
2022-11-02T18:08:34.263Z,99662.00
2022-11-02T18:11:01.244Z,99640.00
2022-11-02T18:13:34.508Z,99640.00
2022-11-02T18:16:07.522Z,99657.00
2022-11-02T18:18:34.414Z,99673.00
2022-11-02T18:21:07.588Z,99672.00
2022-11-02T18:23:34.451Z,99671.00
2022-11-02T18:26:07.513Z,99684.00
2022-11-02T18:28:34.898Z,99688.00
2022-11-02T18:31:15.005Z,99673.00
2022-11-02T18:33:49.558Z,99676.00
2022-11-02T18:36:16.417Z,99688.00
2022-11-02T18:38:49.528Z,99689.00
2022-11-02T18:41:16.455Z,99687.00
2022-11-02T18:43:43.374Z,99684.00
2022-11-02T18:46:16.549Z,99674.00
2022-11-02T18:48:43.440Z,99675.00
2022-11-02T18:51:10.321Z,99690.00
2022-11-02T18:53:44.564Z,99706.00
2022-11-02T18:56:11.886Z,99689.00
2022-11-02T18:58:45.547Z,99701.00
2022-11-02T19:01:12.658Z,99707.00
2022-11-02T19:03:46.533Z,99701.00
2022-11-02T19:06:20.494Z,99704.00
2022-11-02T19:08:53.555Z,99694.00
2022-11-02T19:11:20.481Z,99697.00
2022-11-02T19:13:53.579Z,99700.00
2022-11-02T19:16:26.569Z,99692.00
2022-11-02T19:18:59.541Z,99703.00
2022-11-02T19:21:26.488Z,99707.00
2022-11-02T19:23:59.542Z,99700.00
2022-11-02T19:26:26.519Z,99706.00
2022-11-02T19:28:53.425Z,99702.00
2022-11-02T19:31:26.547Z,99703.00
2022-11-02T19:33:53.461Z,99702.00
2022-11-02T19:36:27.547Z,99695.00
2022-11-02T19:38:54.390Z,99711.00
2022-11-02T19:41:27.569Z,99696.00
2022-11-02T19:43:54.441Z,99718.00
2022-11-02T19:46:28.615Z,99695.00
2022-11-02T19:49:07.570Z,99688.00
2022-11-02T19:51:34.582Z,99698.00
2022-11-02T19:54:08.577Z,99697.00
2022-11-02T19:56:36.470Z,99692.00
2022-11-02T19:59:10.609Z,99698.00
2022-11-02T20:01:39.535Z,99694.00
2022-11-02T20:04:06.650Z,99704.00
2022-11-02T20:06:41.606Z,99701.00
2022-11-02T20:09:18.124Z,99681.00
2022-11-02T20:11:51.605Z,99695.00
2022-11-02T20:14:18.518Z,99708.00
2022-11-02T20:17:04.145Z,99691.00
2022-11-02T20:19:38.514Z,99710.00
2022-11-02T20:22:11.695Z,99683.00
2022-11-02T20:24:38.666Z,99696.00
2022-11-02T20:27:11.649Z,99681.00
2022-11-02T20:29:44.650Z,99697.00
2022-11-02T20:32:11.553Z,99696.00
2022-11-02T20:34:44.623Z,99720.00
2022-11-02T20:37:20.716Z,99700.00
2022-11-02T20:39:47.626Z,99715.00
2022-11-02T20:42:14.534Z,99697.00
2022-11-02T20:44:47.617Z,99710.00
2022-11-02T20:47:14.877Z,99701.00
2022-11-02T20:49:51.224Z,99694.00
2022-11-02T20:52:18.400Z,99720.00
2022-11-02T20:54:45.435Z,99718.00
2022-11-02T20:57:19.648Z,99727.00
2022-11-02T20:59:46.868Z,99709.00
2022-11-02T21:02:20.825Z,99728.00
2022-11-02T21:04:51.076Z,99719.00
2022-11-02T21:07:25.637Z,99738.00
2022-11-02T21:09:53.410Z,99744.00
2022-11-02T21:12:26.703Z,99745.00
2022-11-02T21:14:53.726Z,99734.00
2022-11-02T21:17:26.646Z,99713.00
2022-11-02T21:20:02.770Z,99743.00
2022-11-02T21:22:42.705Z,99737.00
2022-11-02T21:25:10.527Z,99732.00
2022-11-02T21:27:37.497Z,99741.00
2022-11-02T21:30:11.795Z,99734.00
2022-11-02T21:32:38.759Z,99728.00
2022-11-02T21:35:12.688Z,99729.00
2022-11-02T21:37:40.072Z,99740.00
2022-11-02T21:40:14.681Z,99734.00
2022-11-02T21:42:41.673Z,99718.00
2022-11-02T21:45:18.147Z,99729.00
2022-11-02T21:47:45.382Z,99720.00
2022-11-02T21:50:18.667Z,99722.00
2022-11-02T21:52:45.610Z,99711.00
2022-11-02T21:55:18.691Z,99732.00
2022-11-02T21:57:45.805Z,99741.00
2022-11-02T22:00:19.732Z,99735.00
2022-11-02T22:02:46.651Z,99747.00
2022-11-02T22:05:13.558Z,99748.00
2022-11-02T22:07:46.636Z,99738.00
2022-11-02T22:10:20.705Z,99743.00
2022-11-02T22:12:47.713Z,99745.00
2022-11-02T22:15:21.674Z,99739.00
2022-11-02T22:17:50.127Z,99734.00
2022-11-02T22:20:23.645Z,99736.00
2022-11-02T22:22:50.518Z,99729.00
2022-11-02T22:25:23.654Z,99748.00
2022-11-02T22:27:58.665Z,99737.00
2022-11-02T22:30:31.648Z,99732.00
2022-11-02T22:33:04.923Z,99737.00
2022-11-02T22:35:31.988Z,99743.00
2022-11-02T22:38:05.683Z,99728.00
2022-11-02T22:40:32.552Z,99745.00
2022-11-02T22:43:06.109Z,99722.00
2022-11-02T22:45:34.448Z,99735.00
2022-11-02T22:48:07.721Z,99738.00
2022-11-02T22:50:41.693Z,99729.00
2022-11-02T22:53:08.763Z,99736.00
2022-11-02T22:55:35.852Z,99732.00
2022-11-02T22:58:09.665Z,99704.00
2022-11-02T23:00:36.544Z,99727.00
2022-11-02T23:03:09.697Z,99729.00
2022-11-02T23:05:36.528Z,99727.00
2022-11-02T23:08:03.553Z,99727.00
2022-11-02T23:10:36.693Z,99728.00
2022-11-02T23:13:09.726Z,99718.00
2022-11-02T23:15:36.659Z,99727.00
2022-11-02T23:18:03.678Z,99720.00
2022-11-02T23:20:36.738Z,99696.00
2022-11-02T23:23:03.873Z,99716.00
2022-11-02T23:25:37.685Z,99692.00
2022-11-02T23:28:04.605Z,99701.00
2022-11-02T23:30:43.740Z,99690.00
2022-11-02T23:33:10.633Z,99700.00
2022-11-02T23:35:43.917Z,99702.00
2022-11-02T23:38:17.684Z,99698.00
2022-11-02T23:40:44.587Z,99689.00
2022-11-02T23:43:17.700Z,99695.00
2022-11-02T23:45:44.585Z,99704.00
2022-11-02T23:48:17.769Z,99700.00
2022-11-02T23:50:44.632Z,99702.00
2022-11-02T23:53:13.322Z,99706.00
2022-11-02T23:55:46.698Z,99683.00
2022-11-02T23:58:20.690Z,99696.00
